TimeEDT,TemperatureF,Dew PointF,Humidity,Sea Level PressureIn,VisibilityMPH,Wind Direction,Wind SpeedMPH,Gust SpeedMPH,PrecipitationIn,Events,Conditions,WindDirDegrees,DateUTC
12:53 AM,70.0,69.1,97,30.11,5.0,Calm,Calm,-,N/A,,Partly Cloudy,0,2013-09-11 04:53:00
1:27 AM,69.8,69.8,100,30.11,5.0,SSW,3.5,-,N/A,Thunderstorm,Clear,210,2013-09-11 05:27:00
1:42 AM,69.8,69.8,100,30.10,5.0,SW,4.6,-,N/A,,Clear,220,2013-09-11 05:42:00
1:53 AM,70.0,69.1,97,30.10,5.0,SW,4.6,-,N/A,,Clear,230,2013-09-11 05:53:00
2:53 AM,69.1,69.1,100,30.09,4.0,WSW,3.5,-,N/A,,Clear,240,2013-09-11 06:53:00
3:22 AM,69.8,68.0,94,30.09,4.0,Calm,Calm,-,N/A,,Partly Cloudy,0,2013-09-11 07:22:00
3:53 AM,69.1,68.0,96,30.09,4.0,South,3.5,-,N/A,,Clear,180,2013-09-11 07:53:00
4:53 AM,69.1,68.0,96,30.09,4.0,Calm,Calm,-,N/A,,Clear,0,2013-09-11 08:53:00
5:53 AM,68.0,68.0,100,30.09,3.0,Calm,Calm,-,N/A,,Clear,0,2013-09-11 09:53:00
6:28 AM,68.0,68.0,100,30.10,2.0,SSW,3.5,-,N/A,,Clear,200,2013-09-11 10:28:00
6:53 AM,69.1,68.0,96,30.11,2.0,SSW,3.5,-,N/A,,Clear,200,2013-09-11 10:53:00
7:25 AM,69.8,69.8,100,30.12,2.5,SSW,3.5,-,N/A,,Partly Cloudy,210,2013-09-11 11:25:00
7:32 AM,69.8,69.8,100,30.11,3.0,SSW,5.8,-,N/A,,Mostly Cloudy,200,2013-09-11 11:32:00
7:44 AM,69.8,69.8,100,30.12,3.0,SSW,4.6,-,N/A,,Mostly Cloudy,210,2013-09-11 11:44:00
7:53 AM,71.1,69.1,93,30.11,3.0,SW,4.6,-,N/A,,Scattered Clouds,230,2013-09-11 11:53:00
8:53 AM,73.9,70.0,87,30.12,5.0,SSW,6.9,-,N/A,,Clear,210,2013-09-11 12:53:00
9:53 AM,77.0,71.1,82,30.12,6.0,WSW,9.2,-,N/A,,Haze,240,2013-09-11 13:53:00
10:53 AM,82.9,73.0,72,30.10,6.0,WSW,3.5,-,N/A,,Haze,250,2013-09-11 14:53:00
11:53 AM,86.0,73.0,65,30.09,6.0,SW,6.9,-,N/A,,Haze,220,2013-09-11 15:53:00
12:53 PM,82.9,73.0,72,30.08,6.0,South,5.8,-,N/A,,Haze,190,2013-09-11 16:53:00
1:53 PM,82.9,72.0,69,30.06,6.0,South,9.2,-,N/A,,Haze,190,2013-09-11 17:53:00
2:53 PM,80.1,71.1,74,30.06,6.0,SSW,6.9,-,N/A,,Haze,210,2013-09-11 18:53:00
3:53 PM,79.0,71.1,77,30.05,6.0,South,10.4,-,N/A,,Haze,190,2013-09-11 19:53:00
4:53 PM,79.0,71.1,77,30.04,6.0,SSW,9.2,-,N/A,,Haze,200,2013-09-11 20:53:00
5:53 PM,78.1,70.0,76,30.02,6.0,SW,5.8,-,N/A,,Haze,220,2013-09-11 21:53:00
6:53 PM,75.0,69.1,82,30.02,6.0,SSW,8.1,-,N/A,,Haze,210,2013-09-11 22:53:00
7:53 PM,72.0,69.1,91,30.06,5.0,West,4.6,-,N/A,,Clear,260,2013-09-11 23:53:00
8:53 PM,73.0,69.1,87,30.04,6.0,SSW,5.8,-,N/A,,Clear,210,2013-09-12 00:53:00
9:53 PM,72.0,69.1,91,30.05,6.0,SSW,5.8,-,N/A,,Clear,200,2013-09-12 01:53:00
10:53 PM,72.0,69.1,91,30.04,6.0,Calm,Calm,-,N/A,,Clear,0,2013-09-12 02:53:00
11:53 PM,72.0,69.1,91,30.02,6.0,Calm,Calm,-,N/A,,Clear,0,2013-09-12 03:53:00